createdAt,value
2023-05-15T00:02:27.859Z,100.00
2023-05-15T00:05:14.040Z,100.00
2023-05-15T00:08:00.330Z,100.00
2023-05-15T00:10:57.413Z,100.00
2023-05-15T00:13:46.255Z,100.00
2023-05-15T00:16:32.076Z,100.00
2023-05-15T00:19:18.189Z,100.00
2023-05-15T00:22:04.659Z,100.00
2023-05-15T00:24:50.552Z,100.00
2023-05-15T00:27:37.799Z,100.00
2023-05-15T00:30:23.921Z,100.00
2023-05-15T00:33:10.176Z,100.00
2023-05-15T00:35:56.840Z,100.00
2023-05-15T00:38:43.387Z,100.00
2023-05-15T00:41:31.995Z,100.00
2023-05-15T00:44:19.980Z,100.00
2023-05-15T00:47:07.506Z,100.00
2023-05-15T00:49:54.128Z,100.00
2023-05-15T00:52:40.052Z,100.00
2023-05-15T00:55:27.326Z,100.00
2023-05-15T00:58:14.393Z,100.00
2023-05-15T01:01:01.611Z,100.00
2023-05-15T01:03:47.740Z,100.00
2023-05-15T01:06:33.976Z,100.00
2023-05-15T01:09:20.394Z,100.00
2023-05-15T01:12:08.993Z,100.00
2023-05-15T01:14:55.564Z,100.00
2023-05-15T01:17:42.876Z,100.00
2023-05-15T01:20:29.139Z,100.00
2023-05-15T01:23:18.024Z,100.00
2023-05-15T01:26:25.941Z,100.00
2023-05-15T01:29:20.598Z,100.00
2023-05-15T01:32:10.091Z,100.00
2023-05-15T01:35:00.271Z,100.00
2023-05-15T01:37:49.984Z,100.00
2023-05-15T01:40:36.033Z,100.00
2023-05-15T01:43:23.882Z,100.00
2023-05-15T01:46:16.198Z,100.00
2023-05-15T01:49:03.485Z,100.00
2023-05-15T01:51:52.265Z,100.00
2023-05-15T01:54:40.560Z,100.00
2023-05-15T01:57:27.133Z,100.00
2023-05-15T02:00:14.190Z,100.00
2023-05-15T02:03:02.017Z,100.00
2023-05-15T02:05:48.397Z,100.00
2023-05-15T02:08:35.618Z,100.00
2023-05-15T02:11:22.560Z,100.00
2023-05-15T02:14:09.484Z,100.00
2023-05-15T02:16:55.737Z,100.00
2023-05-15T02:19:42.991Z,100.00
2023-05-15T02:22:29.071Z,100.00
2023-05-15T02:25:15.962Z,100.00
2023-05-15T02:28:05.525Z,100.00
2023-05-15T02:30:56.852Z,100.00
2023-05-15T02:33:46.962Z,100.00
2023-05-15T02:36:34.892Z,100.00
2023-05-15T02:39:23.332Z,100.00
2023-05-15T02:42:10.887Z,100.00
2023-05-15T02:44:58.511Z,100.00
2023-05-15T02:47:44.557Z,100.00
2023-05-15T02:50:30.917Z,100.00
2023-05-15T02:53:18.135Z,100.00
2023-05-15T02:56:04.406Z,100.00
2023-05-15T02:58:50.329Z,100.00
2023-05-15T03:01:36.227Z,100.00
2023-05-15T03:04:22.270Z,100.00
2023-05-15T03:07:08.166Z,100.00
2023-05-15T03:09:55.591Z,100.00
2023-05-15T03:12:41.884Z,100.00
2023-05-15T03:15:28.078Z,100.00
2023-05-15T03:18:14.493Z,100.00
2023-05-15T03:21:01.771Z,100.00
2023-05-15T03:23:47.848Z,100.00
2023-05-15T03:26:35.700Z,100.00
2023-05-15T03:29:21.670Z,100.00
2023-05-15T03:32:07.459Z,100.00
2023-05-15T03:34:53.325Z,100.00
2023-05-15T03:37:39.226Z,100.00
2023-05-15T03:40:25.072Z,100.00
2023-05-15T03:43:12.430Z,100.00
2023-05-15T03:45:59.908Z,100.00
2023-05-15T03:48:45.779Z,100.00
2023-05-15T03:51:31.566Z,100.00
2023-05-15T03:54:17.468Z,100.00
2023-05-15T03:57:04.256Z,100.00
2023-05-15T03:59:51.490Z,100.00
2023-05-15T04:02:37.724Z,100.00
2023-05-15T04:05:24.026Z,100.00
2023-05-15T04:08:12.266Z,100.00
2023-05-15T04:10:58.126Z,100.00
2023-05-15T04:13:43.971Z,100.00
2023-05-15T04:16:31.360Z,100.00
2023-05-15T04:19:17.739Z,100.00
2023-05-15T04:22:04.429Z,100.00
2023-05-15T04:24:50.313Z,100.00
2023-05-15T04:27:37.316Z,100.00
2023-05-15T04:30:23.518Z,100.00
2023-05-15T04:33:11.965Z,100.00
2023-05-15T04:35:58.070Z,100.00
2023-05-15T04:38:44.249Z,100.00
2023-05-15T04:41:30.192Z,100.00
2023-05-15T04:44:16.438Z,100.00
2023-05-15T04:47:02.780Z,100.00
2023-05-15T04:49:50.212Z,100.00
2023-05-15T04:52:36.356Z,100.00
2023-05-15T04:55:22.384Z,100.00
2023-05-15T04:58:08.799Z,100.00
2023-05-15T05:00:54.786Z,100.00
2023-05-15T05:03:40.602Z,100.00
2023-05-15T05:06:29.756Z,100.00
2023-05-15T05:09:16.711Z,100.00
2023-05-15T05:12:03.418Z,100.00
2023-05-15T05:14:49.347Z,100.00
2023-05-15T05:17:35.298Z,100.00
2023-05-15T05:20:21.373Z,100.00
2023-05-15T05:23:08.905Z,100.00
2023-05-15T05:25:55.020Z,100.00
2023-05-15T05:28:42.070Z,100.00
2023-05-15T05:31:28.221Z,100.00
2023-05-15T05:34:14.537Z,100.00
2023-05-15T05:37:00.545Z,100.00
2023-05-15T05:39:47.850Z,100.00
2023-05-15T05:42:33.967Z,100.00
2023-05-15T05:45:19.868Z,100.00
2023-05-15T05:48:06.202Z,100.00
2023-05-15T05:50:52.115Z,100.00
2023-05-15T05:53:39.578Z,100.00
2023-05-15T05:56:27.525Z,100.00
2023-05-15T05:59:13.747Z,100.00
2023-05-15T06:01:59.674Z,100.00
2023-05-15T06:04:45.984Z,100.00
2023-05-15T06:07:32.223Z,100.00
2023-05-15T06:10:18.034Z,100.00
2023-05-15T06:13:05.614Z,100.00
2023-05-15T06:15:51.985Z,100.00
2023-05-15T06:18:38.234Z,100.00
2023-05-15T06:21:24.317Z,100.00
2023-05-15T06:24:10.317Z,100.00
2023-05-15T06:26:56.674Z,100.00
2023-05-15T06:29:43.756Z,100.00
2023-05-15T06:32:32.463Z,100.00
2023-05-15T06:35:19.910Z,100.00
2023-05-15T06:38:05.842Z,100.00
2023-05-15T06:40:51.732Z,100.00
2023-05-15T06:43:38.428Z,100.00
2023-05-15T06:46:25.915Z,100.00
2023-05-15T06:49:12.453Z,100.00
2023-05-15T06:51:58.437Z,100.00
2023-05-15T06:54:44.429Z,100.00
2023-05-15T06:57:30.332Z,100.00
2023-05-15T07:00:17.103Z,100.00
2023-05-15T07:03:04.878Z,100.00
2023-05-15T07:05:51.015Z,100.00
2023-05-15T07:08:37.030Z,100.00
2023-05-15T07:11:22.970Z,100.00
2023-05-15T07:14:08.849Z,100.00
2023-05-15T07:16:54.828Z,100.00
2023-05-15T07:19:42.533Z,100.00
2023-05-15T07:22:28.852Z,100.00
2023-05-15T07:25:16.878Z,100.00
2023-05-15T07:28:03.105Z,100.00
2023-05-15T07:30:49.374Z,100.00
2023-05-15T07:33:35.603Z,100.00
2023-05-15T07:36:22.894Z,100.00
2023-05-15T07:39:08.877Z,100.00
2023-05-15T07:41:55.164Z,100.00
2023-05-15T07:44:43.076Z,100.00
2023-05-15T07:47:30.633Z,100.00
2023-05-15T07:50:17.421Z,100.00
2023-05-15T07:53:04.824Z,100.00
2023-05-15T07:55:51.003Z,100.00
2023-05-15T07:58:37.767Z,100.00
2023-05-15T08:01:24.021Z,100.00
2023-05-15T08:04:10.304Z,100.00
2023-05-15T08:06:56.668Z,100.00
2023-05-15T08:09:44.294Z,100.00
2023-05-15T08:12:30.921Z,100.00
2023-05-15T08:15:17.477Z,100.00
2023-05-15T08:18:03.691Z,100.00
2023-05-15T08:20:49.672Z,100.00
2023-05-15T08:23:35.896Z,100.00
2023-05-15T08:26:23.220Z,100.00
2023-05-15T08:29:09.021Z,100.00
2023-05-15T08:31:55.709Z,100.00
2023-05-15T08:34:41.576Z,100.00
2023-05-15T08:37:27.401Z,100.00
2023-05-15T08:40:14.063Z,100.00
2023-05-15T08:43:04.335Z,100.00
2023-05-15T08:45:50.812Z,100.00
2023-05-15T08:48:38.485Z,100.00
2023-05-15T08:51:25.269Z,100.00
2023-05-15T08:54:11.598Z,100.00
2023-05-15T08:56:57.680Z,100.00
2023-05-15T08:59:45.232Z,100.00
2023-05-15T09:05:17.401Z,100.00
2023-05-15T09:08:05.235Z,100.00
2023-05-15T09:10:53.898Z,99.80
2023-05-15T09:13:39.725Z,100.00
2023-05-15T09:16:27.152Z,95.84
2023-05-15T09:19:18.200Z,100.00
2023-05-15T09:22:17.549Z,100.00
2023-05-15T09:25:04.647Z,91.94
2023-05-15T09:27:50.962Z,90.26
2023-05-15T09:30:38.806Z,94.36
2023-05-15T09:33:30.638Z,86.43
2023-05-15T09:36:22.549Z,86.87
2023-05-15T09:39:09.804Z,81.70
2023-05-15T09:42:06.834Z,87.02
2023-05-15T09:44:52.933Z,85.69
2023-05-15T09:47:39.475Z,77.76
2023-05-15T09:50:34.316Z,80.32
2023-05-15T09:53:21.472Z,78.71
2023-05-15T09:56:08.029Z,75.61
2023-05-15T09:58:54.579Z,72.68
2023-05-15T10:01:43.518Z,70.56
2023-05-15T10:04:35.493Z,67.87
2023-05-15T10:07:28.661Z,72.38
2023-05-15T10:10:14.918Z,67.87
2023-05-15T10:13:04.708Z,69.40
2023-05-15T10:15:51.077Z,64.18
2023-05-15T10:18:37.409Z,63.53
2023-05-15T10:21:24.213Z,63.24
2023-05-15T10:24:11.936Z,64.07
2023-05-15T10:26:58.871Z,64.67
2023-05-15T10:29:45.175Z,58.25
2023-05-15T10:32:31.725Z,58.71
2023-05-15T10:35:18.062Z,64.25
2023-05-15T10:38:06.640Z,64.20
2023-05-15T10:41:09.084Z,59.09
2023-05-15T10:44:02.907Z,58.35
2023-05-15T10:46:49.666Z,59.15
2023-05-15T10:49:36.288Z,56.03
2023-05-15T10:52:22.391Z,50.87
2023-05-15T10:55:10.029Z,54.61
2023-05-15T10:57:57.430Z,56.01
2023-05-15T11:00:44.922Z,52.12
2023-05-15T11:03:47.871Z,57.18
2023-05-15T11:06:36.051Z,55.30
2023-05-15T11:09:35.990Z,51.08
2023-05-15T11:12:22.220Z,55.52
2023-05-15T11:15:22.478Z,65.05
2023-05-15T11:18:08.636Z,58.60
2023-05-15T11:21:08.673Z,61.09
2023-05-15T11:24:04.884Z,59.08
2023-05-15T11:26:53.282Z,64.52
2023-05-15T11:29:39.330Z,59.69
2023-05-15T11:32:43.646Z,63.27
2023-05-15T11:35:31.263Z,67.33
2023-05-15T11:38:20.034Z,67.81
2023-05-15T11:41:18.040Z,61.29
2023-05-15T11:44:04.218Z,65.52
2023-05-15T11:46:50.989Z,66.53
2023-05-15T11:49:39.406Z,68.83
2023-05-15T11:52:25.638Z,67.78
2023-05-15T11:55:11.756Z,72.85
2023-05-15T11:57:57.862Z,71.12
2023-05-15T12:00:44.548Z,69.79
2023-05-15T12:03:34.777Z,68.04
2023-05-15T12:06:22.778Z,69.33
2023-05-15T12:09:14.277Z,75.78
2023-05-15T12:12:00.497Z,74.68
2023-05-15T12:14:46.714Z,69.30
2023-05-15T12:17:32.906Z,69.38
2023-05-15T12:20:19.644Z,67.40
2023-05-15T12:23:08.646Z,70.13
2023-05-15T12:25:58.630Z,68.98
2023-05-15T12:28:45.328Z,72.48
2023-05-15T12:31:31.731Z,75.46
2023-05-15T12:34:18.005Z,75.43
2023-05-15T12:37:03.749Z,68.47
2023-05-15T12:39:55.546Z,68.85
2023-05-15T12:42:42.571Z,65.08
2023-05-15T12:45:28.926Z,64.80
2023-05-15T12:48:16.002Z,68.35
2023-05-15T12:51:06.031Z,70.40
2023-05-15T12:53:53.446Z,72.77
2023-05-15T12:56:41.361Z,70.96
2023-05-15T12:59:27.203Z,71.40
2023-05-15T13:02:14.112Z,73.00
2023-05-15T13:05:03.677Z,71.03
2023-05-15T13:07:49.896Z,78.39
2023-05-15T13:10:38.502Z,76.82
2023-05-15T13:13:25.842Z,75.92
2023-05-15T13:16:22.753Z,79.45
2023-05-15T13:19:09.663Z,72.11
2023-05-15T13:21:56.102Z,73.89
2023-05-15T13:24:46.338Z,77.74
2023-05-15T13:27:32.835Z,80.98
2023-05-15T13:30:20.336Z,80.17
2023-05-15T13:33:06.462Z,85.20
2023-05-15T13:35:52.827Z,81.74
2023-05-15T13:38:39.110Z,87.96
2023-05-15T13:41:26.098Z,86.26
2023-05-15T13:44:12.302Z,91.58
2023-05-15T13:47:04.216Z,88.51
2023-05-15T13:49:50.532Z,90.32
2023-05-15T13:52:36.702Z,80.18
2023-05-15T13:55:23.432Z,76.43
2023-05-15T13:58:09.822Z,79.57
2023-05-15T14:00:56.021Z,77.50
2023-05-15T14:03:43.487Z,82.88
2023-05-15T14:06:29.392Z,86.13
2023-05-15T14:09:15.329Z,79.99
2023-05-15T14:12:01.425Z,73.61
2023-05-15T14:14:47.660Z,71.96
2023-05-15T14:17:33.842Z,73.84
2023-05-15T14:20:21.402Z,79.60
2023-05-15T14:23:08.013Z,81.55
2023-05-15T14:25:53.880Z,85.11
2023-05-15T14:28:39.758Z,90.54
2023-05-15T14:31:25.967Z,90.50
2023-05-15T14:34:12.084Z,95.30
2023-05-15T14:36:59.477Z,88.84
2023-05-15T14:39:45.457Z,87.51
2023-05-15T14:42:31.508Z,89.40
2023-05-15T14:45:17.553Z,84.87
2023-05-15T14:48:03.507Z,86.00
2023-05-15T14:50:49.428Z,85.24
2023-05-15T14:53:37.388Z,89.65
2023-05-15T14:56:23.490Z,93.25
2023-05-15T14:59:09.383Z,89.35
2023-05-15T15:01:55.441Z,89.22
2023-05-15T15:04:41.567Z,100.00
2023-05-15T15:07:30.282Z,100.00
2023-05-15T15:10:18.055Z,94.24
2023-05-15T15:13:04.667Z,96.68
2023-05-15T15:15:51.108Z,95.63
2023-05-15T15:18:37.500Z,95.78
2023-05-15T15:21:23.872Z,97.02
2023-05-15T15:24:10.172Z,99.16
2023-05-15T15:26:57.806Z,100.00
2023-05-15T15:29:43.686Z,100.00
2023-05-15T15:32:29.671Z,100.00
2023-05-15T15:35:15.826Z,100.00
2023-05-15T15:38:01.930Z,100.00
2023-05-15T15:40:47.993Z,100.00
2023-05-15T15:43:35.560Z,100.00
2023-05-15T15:46:21.520Z,100.00
2023-05-15T15:49:07.840Z,100.00
2023-05-15T15:51:54.388Z,100.00
2023-05-15T15:54:46.750Z,100.00
2023-05-15T15:57:34.203Z,100.00
2023-05-15T16:00:22.073Z,100.00
2023-05-15T16:03:08.245Z,100.00
2023-05-15T16:05:54.367Z,100.00
2023-05-15T16:08:41.169Z,100.00
2023-05-15T16:11:27.551Z,100.00
2023-05-15T16:14:13.572Z,100.00
2023-05-15T16:17:03.991Z,100.00
2023-05-15T16:19:50.597Z,100.00
2023-05-15T16:22:37.075Z,100.00
2023-05-15T16:25:23.557Z,100.00
2023-05-15T16:28:10.180Z,100.00
2023-05-15T16:30:56.681Z,100.00
2023-05-15T16:33:44.246Z,100.00
2023-05-15T16:36:31.282Z,100.00
2023-05-15T16:39:17.348Z,100.00
2023-05-15T16:42:03.549Z,100.00
2023-05-15T16:44:49.509Z,100.00
2023-05-15T16:47:37.163Z,100.00
2023-05-15T16:50:25.645Z,100.00
2023-05-15T16:53:12.440Z,100.00
2023-05-15T16:55:58.564Z,100.00
2023-05-15T16:58:44.699Z,100.00
2023-05-15T17:01:31.304Z,100.00
2023-05-15T17:04:17.888Z,100.00
2023-05-15T17:07:05.956Z,100.00
2023-05-15T17:09:52.387Z,100.00
2023-05-15T17:12:38.932Z,100.00
2023-05-15T17:15:25.438Z,100.00
2023-05-15T17:18:11.766Z,100.00
2023-05-15T17:20:58.154Z,100.00
2023-05-15T17:23:46.021Z,100.00
2023-05-15T17:26:32.306Z,100.00
2023-05-15T17:29:18.634Z,100.00
2023-05-15T17:32:05.567Z,100.00
2023-05-15T17:34:52.046Z,100.00
2023-05-15T17:37:39.904Z,100.00
2023-05-15T17:40:27.160Z,100.00
2023-05-15T17:43:13.405Z,100.00
2023-05-15T17:46:00.414Z,100.00
2023-05-15T17:48:46.495Z,100.00
2023-05-15T17:51:32.824Z,100.00
2023-05-15T17:54:19.556Z,100.00
2023-05-15T17:57:06.936Z,100.00
2023-05-15T17:59:52.963Z,100.00
2023-05-15T18:02:39.006Z,100.00
2023-05-15T18:05:25.557Z,100.00
2023-05-15T18:08:12.231Z,100.00
2023-05-15T18:10:58.328Z,100.00
2023-05-15T18:13:45.672Z,100.00
2023-05-15T18:16:32.676Z,100.00
2023-05-15T18:19:19.329Z,100.00
2023-05-15T18:22:05.878Z,100.00
2023-05-15T18:24:52.132Z,100.00
2023-05-15T18:27:38.031Z,100.00
2023-05-15T18:30:25.258Z,100.00
2023-05-15T18:33:12.149Z,100.00
2023-05-15T18:35:58.414Z,100.00
2023-05-15T18:38:44.346Z,100.00
2023-05-15T18:41:30.732Z,100.00
2023-05-15T18:44:16.974Z,100.00
2023-05-15T18:47:04.302Z,100.00
2023-05-15T18:49:51.206Z,100.00
2023-05-15T18:52:37.313Z,100.00
2023-05-15T18:55:23.383Z,100.00
2023-05-15T18:58:09.417Z,100.00
2023-05-15T19:00:56.357Z,100.00
2023-05-15T19:03:44.032Z,100.00
2023-05-15T19:06:30.124Z,100.00
2023-05-15T19:09:16.596Z,100.00
2023-05-15T19:12:03.036Z,100.00
2023-05-15T19:14:48.952Z,100.00
2023-05-15T19:17:36.028Z,100.00
2023-05-15T19:20:25.496Z,100.00
2023-05-15T19:23:12.730Z,100.00
2023-05-15T19:25:59.388Z,100.00
2023-05-15T19:28:45.495Z,100.00
2023-05-15T19:31:32.408Z,100.00
2023-05-15T19:34:18.709Z,100.00
2023-05-15T19:37:06.454Z,100.00
2023-05-15T19:39:52.236Z,100.00
2023-05-15T19:42:37.970Z,100.00
2023-05-15T19:45:23.954Z,100.00
2023-05-15T19:48:10.467Z,100.00
2023-05-15T19:50:56.689Z,100.00
2023-05-15T19:53:44.625Z,100.00
2023-05-15T19:56:30.798Z,100.00
2023-05-15T19:59:16.715Z,100.00
2023-05-15T20:02:03.274Z,100.00
2023-05-15T20:04:49.547Z,100.00
2023-05-15T20:07:35.429Z,100.00
2023-05-15T20:10:23.109Z,100.00
2023-05-15T20:13:09.487Z,100.00
2023-05-15T20:15:57.502Z,100.00
2023-05-15T20:18:44.762Z,100.00
2023-05-15T20:21:31.779Z,100.00
2023-05-15T20:24:18.147Z,100.00
2023-05-15T20:27:06.956Z,100.00
2023-05-15T20:29:53.020Z,100.00
2023-05-15T20:32:39.065Z,100.00
2023-05-15T20:35:25.661Z,100.00
2023-05-15T20:38:13.759Z,100.00
2023-05-15T20:40:59.892Z,100.00
2023-05-15T20:43:47.124Z,100.00
2023-05-15T20:46:33.333Z,100.00
2023-05-15T20:49:19.814Z,100.00
2023-05-15T20:52:06.131Z,100.00
2023-05-15T20:54:52.565Z,100.00
2023-05-15T20:57:38.616Z,100.00
2023-05-15T21:00:26.160Z,100.00
2023-05-15T21:03:13.157Z,100.00
2023-05-15T21:05:59.520Z,100.00
2023-05-15T21:08:45.590Z,100.00
2023-05-15T21:11:31.756Z,100.00
2023-05-15T21:14:17.692Z,100.00
2023-05-15T21:17:05.010Z,100.00
2023-05-15T21:19:51.085Z,100.00
2023-05-15T21:22:37.140Z,100.00
2023-05-15T21:25:23.635Z,100.00
2023-05-15T21:28:09.748Z,100.00
2023-05-15T21:30:55.874Z,100.00
2023-05-15T21:33:43.351Z,100.00
2023-05-15T21:36:29.203Z,100.00
2023-05-15T21:39:15.263Z,100.00
2023-05-15T21:42:01.221Z,100.00
2023-05-15T21:44:47.266Z,100.00
2023-05-15T21:47:33.099Z,100.00
2023-05-15T21:50:20.354Z,100.00
2023-05-15T21:53:06.158Z,100.00
2023-05-15T21:55:56.002Z,100.00
2023-05-15T21:58:41.852Z,100.00
2023-05-15T22:01:27.765Z,100.00
2023-05-15T22:04:13.632Z,100.00
2023-05-15T22:07:01.276Z,100.00
2023-05-15T22:09:47.626Z,100.00
2023-05-15T22:12:33.689Z,100.00
2023-05-15T22:15:19.660Z,100.00
2023-05-15T22:18:06.434Z,100.00
2023-05-15T22:20:52.563Z,100.00
2023-05-15T22:23:40.497Z,100.00
2023-05-15T22:26:26.582Z,100.00
2023-05-15T22:29:12.867Z,100.00
2023-05-15T22:31:59.142Z,100.00
2023-05-15T22:34:45.678Z,100.00
2023-05-15T22:37:31.769Z,100.00
2023-05-15T22:40:19.101Z,100.00
2023-05-15T22:43:05.258Z,100.00
2023-05-15T22:45:52.232Z,100.00
2023-05-15T22:48:38.601Z,100.00
2023-05-15T22:51:24.939Z,100.00
2023-05-15T22:54:11.393Z,100.00
2023-05-15T22:56:58.752Z,100.00
2023-05-15T22:59:44.973Z,100.00
2023-05-15T23:02:30.834Z,100.00
2023-05-15T23:05:16.824Z,100.00
2023-05-15T23:08:02.809Z,100.00
2023-05-15T23:10:48.648Z,100.00
2023-05-15T23:13:36.009Z,100.00
2023-05-15T23:16:22.198Z,100.00
2023-05-15T23:19:08.042Z,100.00
2023-05-15T23:21:54.539Z,100.00
2023-05-15T23:24:40.354Z,100.00
2023-05-15T23:27:26.329Z,100.00
2023-05-15T23:30:15.131Z,100.00
2023-05-15T23:33:01.351Z,100.00
2023-05-15T23:35:47.977Z,100.00
2023-05-15T23:38:34.209Z,100.00
2023-05-15T23:41:21.252Z,100.00
2023-05-15T23:44:07.135Z,100.00
2023-05-15T23:46:54.716Z,100.00
2023-05-15T23:49:40.615Z,100.00
2023-05-15T23:52:26.693Z,100.00
2023-05-15T23:55:13.089Z,100.00
2023-05-15T23:57:59.113Z,100.00
